Sands Point, New Jersey
Current Conditions -  °F | °C
As of 1:15 AM on Thursday 23 Oct 2014 (Local Time) from KBLM Reporting Station
Overcast Overcast  
Wind Chill: 50°   Ceiling: 1600
Heat Index: 50°   Visibility: 10mi
Dew Point: 45°   Wind: 15mph
Humidity: 82%   Direction: 350°N
Pressure: 29.68"   Gusts: 23mph
Location:  40.3143°N, 74.0217°W
Report Text: KBLM 230515Z AUTO 35013G20KT 10SM SCT009 OVC016 10/07 A2968 RMK AO1 P0001
Loading
Personal Weather Stations






























Interactive Weather Map
Tropical Storm Tracking
New forecast layout! Learn more

10-Day Weather Forecast

Advertisements
Track Severe Weather on mobile